Главная страница
METAR-TAF:

METAR-TAF

Аэропорты :

Мехрабад

Тегеран, Иран

широта: 35-41N, долгота: 051-21E, высота над уровнем моря: 1204 м

Текущие метеонаблюдения

Эта сводка был подготовлена 39 минут назад, в 03:00 UTC
Штиль
Температура 24°C
Влажность 41%
Давление 1014 hPa
Видимость 10 км и более
Нет облачности ниже 1500 м, и нет кучево-дождевой облачности

METAR: OIII 150300Z 00000KT CAVOK 24/10 Q1013 A2993 NOSIG

Время: 08:09 (03:39 UTC)

Прогноз

Эта сводка был подготовлена 4 часа и 39 минут назад, в 23:00 UTC
Прогноз действительный с 15-го 00 UTC до 16-го 06 UTC
Ветер 8 Узел от северно-северо-западный
Видимость 10 км и более
Нет облачности ниже 1500 м, и нет кучево-дождевой облачности
изменения
С 15-го 06 UTC до 15-го 08 UTC
Ветер 10 Узел от юго-восточный
изменения
С 15-го 18 UTC до 15-го 20 UTC
Ветер 6 Узел от северно-северо-западный

TAF: OIII 142300Z 1500/1606 33004MPS CAVOK BECMG 1506/1508 14005MPS BECMG 1518/1520 33003MPS

Метеонаблюдения и прогнозы для более 4000 аэропортов (сводки METAR и TAF).

Имеющиеся станции представлены на карте желтыми и красными точками.

Чтобы увидеть название станции, наведите на нее мышь.

Затем щелкните, чтобы увидеть метеонаблюдения и метеопрогнозы.

Управление картой: чтобы увеличить масштаб, щелкните зеленые кнопки с черным крестиком; чтобы уменьшить масштаб, щелкните зеленую кнопку с тире; для просмотра соседних карт щелкайте зеленые стрелки.


METAR-TAF: